createdAt,value
2019-03-30T00:01:53.531Z,13.03
2019-03-30T00:04:21.951Z,12.40
2019-03-30T00:06:50.410Z,12.33
2019-03-30T00:09:18.810Z,12.17
2019-03-30T00:11:47.697Z,10.83
2019-03-30T00:14:16.087Z,11.60
2019-03-30T00:16:44.566Z,12.17
2019-03-30T00:19:13.257Z,12.87
2019-03-30T00:21:41.670Z,12.17
2019-03-30T00:24:10.067Z,13.27
2019-03-30T00:26:38.479Z,12.23
2019-03-30T00:29:07.031Z,12.70
2019-03-30T00:31:35.560Z,12.80
2019-03-30T00:34:03.973Z,12.77
2019-03-30T00:36:32.406Z,12.07
2019-03-30T00:39:00.887Z,12.23
2019-03-30T00:41:29.362Z,12.17
2019-03-30T00:43:57.775Z,12.13
2019-03-30T00:46:26.187Z,12.60
2019-03-30T00:48:54.583Z,12.30
2019-03-30T00:51:23.067Z,11.60
2019-03-30T00:53:51.463Z,13.67
2019-03-30T00:56:19.902Z,12.43
2019-03-30T00:58:48.346Z,12.07
2019-03-30T01:01:17.378Z,12.07
2019-03-30T01:03:45.854Z,12.30
2019-03-30T01:06:14.301Z,12.70
2019-03-30T01:08:42.694Z,12.60
2019-03-30T01:11:11.107Z,12.03
2019-03-30T01:13:39.494Z,13.10
2019-03-30T01:16:07.899Z,11.23
2019-03-30T01:18:36.311Z,11.23
2019-03-30T01:21:04.706Z,11.77
2019-03-30T01:23:33.195Z,12.17
2019-03-30T01:26:01.586Z,12.13
2019-03-30T01:28:29.983Z,12.03
2019-03-30T01:30:58.395Z,10.30
2019-03-30T01:33:26.860Z,12.33
2019-03-30T01:35:55.278Z,12.33
2019-03-30T01:38:23.807Z,11.03
2019-03-30T01:40:52.228Z,12.30
2019-03-30T01:43:20.647Z,12.70
2019-03-30T01:45:49.074Z,11.00
2019-03-30T01:48:17.539Z,11.37
2019-03-30T01:50:45.947Z,12.30
2019-03-30T01:53:14.339Z,12.17
2019-03-30T01:55:42.796Z,12.30
2019-03-30T01:58:11.196Z,11.30
2019-03-30T02:00:39.646Z,11.63
2019-03-30T02:03:08.131Z,12.37
2019-03-30T02:05:36.706Z,13.50
2019-03-30T02:08:05.174Z,12.83
2019-03-30T02:10:42.212Z,10.70
2019-03-30T02:13:10.687Z,14.27
2019-03-30T02:15:39.389Z,14.20
2019-03-30T02:18:08.430Z,15.57
2019-03-30T02:20:39.918Z,15.33
2019-03-30T02:23:08.471Z,14.97
2019-03-30T02:25:37.538Z,17.53
2019-03-30T02:28:07.231Z,16.03
2019-03-30T02:30:36.472Z,16.93
2019-03-30T02:33:05.136Z,15.40
2019-03-30T02:35:33.526Z,14.70
2019-03-30T02:38:02.116Z,12.67
2019-03-30T02:40:31.197Z,12.27
2019-03-30T02:43:00.147Z,12.07
2019-03-30T02:45:28.569Z,11.17
2019-03-30T02:47:57.086Z,11.43
2019-03-30T02:50:25.933Z,11.23
2019-03-30T02:52:55.184Z,11.60
2019-03-30T02:55:23.651Z,10.73
2019-03-30T02:57:52.103Z,11.97
2019-03-30T03:00:20.594Z,11.43
2019-03-30T03:02:49.091Z,11.17
2019-03-30T03:05:18.098Z,12.30
2019-03-30T03:07:46.551Z,11.43
2019-03-30T03:10:15.310Z,11.73
2019-03-30T03:12:43.722Z,11.80
2019-03-30T03:15:12.566Z,12.00
2019-03-30T03:17:40.984Z,11.97
2019-03-30T03:20:09.828Z,11.53
2019-03-30T03:22:38.467Z,13.47
2019-03-30T03:25:07.686Z,11.87
2019-03-30T03:27:36.159Z,12.57
2019-03-30T03:30:06.020Z,11.37
2019-03-30T03:32:34.672Z,11.53
2019-03-30T03:35:03.412Z,13.07
2019-03-30T03:37:44.530Z,12.77
2019-03-30T03:40:02.754Z,12.63
2019-03-30T03:42:31.144Z,12.63
2019-03-30T03:44:59.573Z,13.57
2019-03-30T03:47:28.048Z,12.03
2019-03-30T03:49:56.432Z,11.87
2019-03-30T03:52:24.919Z,11.90
2019-03-30T03:54:55.050Z,12.63
2019-03-30T03:57:25.958Z,12.83
2019-03-30T03:59:56.479Z,13.33
2019-03-30T04:02:27.430Z,14.30
2019-03-30T04:04:57.543Z,14.43
2019-03-30T04:07:28.740Z,14.30
2019-03-30T04:10:00.561Z,14.67
2019-03-30T04:12:31.467Z,14.90
2019-03-30T04:15:02.675Z,16.23
2019-03-30T04:17:31.576Z,14.13
2019-03-30T04:20:00.016Z,13.97
2019-03-30T04:22:28.394Z,13.97
2019-03-30T04:24:56.972Z,13.63
2019-03-30T04:27:25.455Z,14.63
2019-03-30T04:29:53.872Z,14.90
2019-03-30T04:32:22.280Z,14.30
2019-03-30T04:34:50.668Z,14.20
2019-03-30T04:37:19.077Z,13.57
2019-03-30T04:39:47.509Z,14.53
2019-03-30T04:42:15.899Z,13.63
2019-03-30T04:44:44.343Z,13.77
2019-03-30T04:47:12.764Z,13.63
2019-03-30T04:49:41.159Z,14.43
2019-03-30T04:52:09.566Z,15.60
2019-03-30T04:54:37.981Z,14.97
2019-03-30T04:57:06.449Z,14.30
2019-03-30T04:59:34.862Z,14.33
2019-03-30T05:02:03.295Z,14.97
2019-03-30T05:04:31.723Z,13.33
2019-03-30T05:07:00.135Z,14.40
2019-03-30T05:09:28.532Z,15.67
2019-03-30T05:11:57.944Z,15.13
2019-03-30T05:14:26.451Z,14.80
2019-03-30T05:16:55.067Z,15.37
2019-03-30T05:19:23.578Z,15.67
2019-03-30T05:21:52.155Z,14.57
2019-03-30T05:24:22.554Z,15.30
2019-03-30T05:26:51.033Z,14.30
2019-03-30T05:29:19.455Z,14.73
2019-03-30T05:31:47.879Z,13.50
2019-03-30T05:34:16.279Z,14.13
2019-03-30T05:36:44.976Z,14.73
2019-03-30T05:39:13.388Z,16.97
2019-03-30T05:41:41.902Z,15.37
2019-03-30T05:44:10.306Z,16.10
2019-03-30T05:46:38.730Z,14.80
2019-03-30T05:49:07.202Z,15.00
2019-03-30T05:51:35.640Z,15.57
2019-03-30T05:54:23.436Z,13.73
2019-03-30T05:56:52.207Z,14.03
2019-03-30T05:59:20.598Z,13.83
2019-03-30T06:01:48.994Z,13.90
2019-03-30T06:04:17.402Z,13.70
2019-03-30T06:06:45.791Z,14.13
2019-03-30T06:09:14.201Z,14.80
2019-03-30T06:11:42.611Z,14.20
2019-03-30T06:14:11.023Z,13.37
2019-03-30T06:16:39.452Z,15.07
2019-03-30T06:19:07.843Z,13.87
2019-03-30T06:21:36.273Z,12.60
2019-03-30T06:24:04.686Z,14.63
2019-03-30T06:26:33.111Z,14.53
2019-03-30T06:29:01.512Z,14.07
2019-03-30T06:31:29.902Z,13.73
2019-03-30T06:33:58.510Z,13.67
2019-03-30T06:36:26.911Z,13.00
2019-03-30T06:38:55.307Z,14.37
2019-03-30T06:41:23.752Z,12.63
2019-03-30T06:43:52.159Z,14.07
2019-03-30T06:46:20.558Z,14.67
2019-03-30T06:48:48.959Z,14.90
2019-03-30T06:51:17.440Z,15.27
2019-03-30T06:53:45.839Z,13.07
2019-03-30T06:56:14.248Z,13.27
2019-03-30T06:58:42.663Z,13.83
2019-03-30T07:01:11.833Z,13.40
2019-03-30T07:03:40.564Z,14.20
2019-03-30T07:06:10.246Z,14.27
2019-03-30T07:08:40.976Z,13.70
2019-03-30T07:11:21.014Z,12.70
2019-03-30T07:13:41.807Z,12.93
2019-03-30T07:16:10.263Z,12.70
2019-03-30T07:18:40.674Z,12.27
2019-03-30T07:21:09.091Z,13.23
2019-03-30T07:23:37.499Z,11.93
2019-03-30T07:26:05.933Z,11.53
2019-03-30T07:28:34.611Z,12.13
2019-03-30T07:31:11.770Z,12.67
2019-03-30T07:33:40.379Z,11.57
2019-03-30T07:36:08.772Z,11.87
2019-03-30T07:38:37.171Z,12.20
2019-03-30T07:41:05.582Z,11.83
2019-03-30T07:43:33.988Z,13.33
2019-03-30T07:46:02.411Z,12.10
2019-03-30T07:48:30.958Z,12.03
2019-03-30T07:50:59.342Z,12.33
2019-03-30T07:53:27.760Z,11.37
2019-03-30T07:56:07.664Z,12.53
2019-03-30T07:58:26.302Z,12.10
2019-03-30T08:00:54.690Z,11.43
2019-03-30T08:03:23.107Z,12.50
2019-03-30T08:05:54.270Z,11.60
2019-03-30T08:08:21.622Z,11.10
2019-03-30T08:10:50.142Z,11.23
2019-03-30T08:13:18.567Z,11.40
2019-03-30T08:15:46.979Z,11.97
2019-03-30T08:18:15.392Z,11.80
2019-03-30T08:20:43.883Z,11.60
2019-03-30T08:23:12.304Z,11.30
2019-03-30T08:25:41.003Z,11.27
2019-03-30T08:28:09.474Z,12.03
2019-03-30T08:30:37.972Z,13.10
2019-03-30T08:33:06.544Z,11.87
2019-03-30T08:35:35.087Z,12.30
2019-03-30T08:38:03.524Z,11.03
2019-03-30T08:40:31.997Z,11.77
2019-03-30T08:43:00.437Z,13.17
2019-03-30T08:45:29.330Z,10.87
2019-03-30T08:47:57.754Z,11.77
2019-03-30T08:50:26.151Z,11.33
2019-03-30T08:52:54.575Z,11.23
2019-03-30T08:55:23.186Z,11.97
2019-03-30T08:57:51.811Z,12.07
2019-03-30T09:00:23.339Z,11.57
2019-03-30T09:02:52.752Z,11.53
2019-03-30T09:05:21.154Z,11.30
2019-03-30T09:07:49.564Z,11.67
2019-03-30T09:10:17.984Z,12.63
2019-03-30T09:12:46.411Z,11.30
2019-03-30T09:15:14.811Z,10.60
2019-03-30T09:17:43.210Z,11.70
2019-03-30T09:20:11.700Z,11.27
2019-03-30T09:22:40.334Z,11.43
2019-03-30T09:25:28.082Z,12.27
2019-03-30T09:27:56.494Z,12.47
2019-03-30T09:30:25.158Z,11.30
2019-03-30T09:32:53.742Z,13.47
2019-03-30T09:35:22.138Z,12.50
2019-03-30T09:37:50.579Z,11.27
2019-03-30T09:40:19.246Z,11.07
2019-03-30T09:42:47.691Z,12.27
2019-03-30T09:45:16.090Z,12.70
2019-03-30T09:47:44.555Z,12.17
2019-03-30T09:50:13.225Z,11.00
2019-03-30T09:52:41.633Z,11.07
2019-03-30T09:55:10.206Z,11.30
2019-03-30T09:57:38.661Z,12.33
2019-03-30T10:00:07.733Z,11.73
2019-03-30T10:02:36.203Z,11.80
2019-03-30T10:05:05.247Z,12.93
2019-03-30T10:07:33.658Z,13.57
2019-03-30T10:10:02.059Z,11.33
2019-03-30T10:12:30.486Z,11.47
2019-03-30T10:14:58.914Z,12.20
2019-03-30T10:17:27.352Z,11.27
2019-03-30T10:20:04.092Z,11.27
2019-03-30T10:22:26.056Z,11.90
2019-03-30T10:24:54.455Z,11.67
2019-03-30T10:27:22.866Z,11.93
2019-03-30T10:29:51.270Z,10.80
2019-03-30T10:32:19.707Z,11.10
2019-03-30T10:34:48.431Z,11.93
2019-03-30T10:37:16.864Z,11.33
2019-03-30T10:39:45.319Z,12.40
2019-03-30T10:42:13.723Z,11.93
2019-03-30T10:44:42.140Z,10.30
2019-03-30T10:47:10.547Z,11.47
2019-03-30T10:49:39.026Z,10.60
2019-03-30T10:52:07.511Z,11.03
2019-03-30T10:54:36.299Z,11.07
2019-03-30T10:57:04.683Z,10.93
2019-03-30T10:59:33.131Z,11.37
2019-03-30T11:02:01.638Z,10.50
2019-03-30T11:04:30.096Z,11.17
2019-03-30T11:06:58.712Z,10.47
2019-03-30T11:09:27.575Z,10.00
2019-03-30T11:11:55.977Z,9.70
2019-03-30T11:14:24.388Z,9.20
2019-03-30T11:16:52.793Z,9.97
2019-03-30T11:19:21.367Z,9.03
2019-03-30T11:21:49.791Z,9.07
2019-03-30T11:24:18.194Z,9.17
2019-03-30T11:26:46.601Z,10.63
2019-03-30T11:29:15.010Z,11.10
2019-03-30T11:31:43.438Z,10.10
2019-03-30T11:34:11.839Z,8.67
2019-03-30T11:36:40.245Z,9.83
2019-03-30T11:39:08.651Z,8.97
2019-03-30T11:41:37.055Z,9.83
2019-03-30T11:44:05.454Z,8.57
2019-03-30T11:46:34.228Z,9.57
2019-03-30T11:49:02.612Z,10.07
2019-03-30T11:51:31.076Z,10.50
2019-03-30T11:53:59.512Z,9.10
2019-03-30T11:56:27.915Z,9.57
2019-03-30T11:58:56.324Z,10.10
2019-03-30T12:01:24.734Z,9.47
2019-03-30T12:03:53.203Z,7.83
2019-03-30T12:06:21.635Z,6.87
2019-03-30T12:08:50.042Z,6.97
2019-03-30T12:11:18.771Z,6.03
2019-03-30T12:13:47.270Z,6.23
2019-03-30T12:16:15.669Z,5.30
2019-03-30T12:18:44.305Z,5.10
2019-03-30T12:21:12.715Z,5.27
2019-03-30T12:23:42.790Z,5.03
2019-03-30T12:26:11.454Z,4.97
2019-03-30T12:28:40.152Z,5.20
2019-03-30T12:31:08.589Z,4.80
2019-03-30T12:33:36.999Z,5.00
2019-03-30T12:36:05.862Z,4.33
2019-03-30T12:38:34.343Z,5.00
2019-03-30T12:41:02.790Z,5.50
2019-03-30T12:43:31.311Z,5.57
2019-03-30T12:45:59.951Z,6.03
2019-03-30T12:48:28.655Z,6.90
2019-03-30T12:50:57.047Z,6.30
2019-03-30T12:53:25.460Z,5.63
2019-03-30T12:55:53.855Z,6.50
2019-03-30T12:58:22.270Z,5.33
2019-03-30T13:00:50.738Z,6.80
2019-03-30T13:03:19.143Z,5.87
2019-03-30T13:05:47.614Z,6.37
2019-03-30T13:08:16.019Z,5.87
2019-03-30T13:13:14.558Z,6.33
2019-03-30T13:15:43.005Z,6.43
2019-03-30T13:18:11.512Z,7.27
2019-03-30T13:20:39.927Z,7.23
2019-03-30T13:23:08.339Z,7.30
2019-03-30T13:25:36.802Z,6.57
2019-03-30T13:28:05.429Z,6.00
2019-03-30T13:30:33.888Z,6.37
2019-03-30T13:33:02.291Z,5.93
2019-03-30T13:35:50.084Z,6.33
2019-03-30T13:38:20.784Z,6.53
2019-03-30T13:40:48.708Z,6.47
2019-03-30T13:43:17.135Z,6.60
2019-03-30T13:45:45.642Z,6.93
2019-03-30T13:48:14.052Z,6.73
2019-03-30T13:50:42.461Z,6.57
2019-03-30T13:53:10.947Z,7.90
2019-03-30T13:55:39.360Z,7.30
2019-03-30T13:58:07.797Z,6.77
2019-03-30T14:00:36.193Z,7.40
2019-03-30T14:03:04.597Z,6.57
2019-03-30T14:05:33.022Z,7.30
2019-03-30T14:08:01.422Z,7.20
2019-03-30T14:10:29.849Z,7.20
2019-03-30T14:12:58.287Z,6.83
2019-03-30T14:15:26.946Z,6.77
2019-03-30T14:17:55.414Z,6.57
2019-03-30T14:20:23.831Z,6.80
2019-03-30T14:22:52.229Z,7.10
2019-03-30T14:25:20.641Z,6.50
2019-03-30T14:27:49.054Z,6.93
2019-03-30T14:30:18.020Z,6.83
2019-03-30T14:32:46.407Z,6.20
2019-03-30T14:35:14.798Z,6.90
2019-03-30T14:37:43.216Z,6.17
2019-03-30T14:40:12.137Z,6.50
2019-03-30T14:42:40.805Z,7.10
2019-03-30T14:45:10.642Z,6.83
2019-03-30T14:47:39.055Z,6.80
2019-03-30T14:50:08.600Z,7.00
2019-03-30T14:52:37.271Z,6.70
2019-03-30T14:55:08.015Z,6.87
2019-03-30T14:57:36.487Z,7.20
2019-03-30T15:00:10.130Z,7.80
2019-03-30T15:02:38.543Z,6.90
2019-03-30T15:05:10.550Z,7.07
2019-03-30T15:07:38.952Z,6.17
2019-03-30T15:10:10.511Z,7.30
2019-03-30T15:12:39.244Z,6.60
2019-03-30T15:15:09.190Z,6.30
2019-03-30T15:17:40.468Z,6.33
2019-03-30T15:20:10.235Z,6.43
2019-03-30T15:22:39.026Z,6.67
2019-03-30T15:25:09.078Z,6.40
2019-03-30T15:27:37.473Z,6.30
2019-03-30T15:30:07.719Z,6.83
2019-03-30T15:32:36.137Z,6.70
2019-03-30T15:35:05.871Z,6.23
2019-03-30T15:37:34.300Z,6.63
2019-03-30T15:40:02.791Z,6.30
2019-03-30T15:42:31.188Z,6.23
2019-03-30T15:44:59.594Z,5.93
2019-03-30T15:47:28.013Z,7.13
2019-03-30T15:49:56.452Z,7.00
2019-03-30T15:52:24.919Z,6.73
2019-03-30T15:54:53.319Z,6.90
2019-03-30T15:57:25.164Z,7.00
2019-03-30T15:59:51.871Z,7.43
2019-03-30T16:02:20.343Z,7.27
2019-03-30T16:04:48.754Z,8.70
2019-03-30T16:07:17.157Z,8.23
2019-03-30T16:09:45.566Z,7.90
2019-03-30T16:12:13.971Z,7.37
2019-03-30T16:14:42.387Z,8.63
2019-03-30T16:17:10.805Z,13.27
2019-03-30T16:19:39.223Z,9.87
2019-03-30T16:22:07.806Z,7.13
2019-03-30T16:24:36.468Z,8.17
2019-03-30T16:27:05.389Z,8.00
2019-03-30T16:29:33.790Z,10.17
2019-03-30T16:32:02.219Z,7.53
2019-03-30T16:34:30.614Z,7.50
2019-03-30T16:36:59.035Z,8.33
2019-03-30T16:39:27.446Z,7.83
2019-03-30T16:41:56.143Z,7.47
2019-03-30T16:44:24.532Z,8.63
2019-03-30T16:46:52.931Z,8.27
2019-03-30T16:49:21.342Z,7.40
2019-03-30T16:51:50.067Z,7.97
2019-03-30T16:54:18.479Z,8.27
2019-03-30T16:56:46.874Z,8.83
2019-03-30T16:59:15.367Z,8.03
2019-03-30T17:01:43.795Z,8.63
2019-03-30T17:04:12.172Z,8.50
2019-03-30T17:06:40.604Z,8.20
2019-03-30T17:09:09.065Z,8.63
2019-03-30T17:11:37.470Z,9.10
2019-03-30T17:14:05.895Z,10.43
2019-03-30T17:16:34.291Z,9.60
2019-03-30T17:19:02.711Z,13.80
2019-03-30T17:21:31.118Z,14.83
2019-03-30T17:23:59.529Z,12.77
2019-03-30T17:26:30.639Z,12.40
2019-03-30T17:28:59.041Z,13.20
2019-03-30T17:31:27.467Z,10.63
2019-03-30T17:33:55.883Z,10.57
2019-03-30T17:36:24.779Z,9.70
2019-03-30T17:38:53.199Z,8.63
2019-03-30T17:41:21.708Z,8.70
2019-03-30T17:43:50.118Z,8.77
2019-03-30T17:46:18.527Z,9.10
2019-03-30T17:48:46.922Z,9.83
2019-03-30T17:51:15.653Z,8.33
2019-03-30T17:53:44.050Z,8.87
2019-03-30T17:56:12.466Z,9.70
2019-03-30T17:58:40.883Z,9.03
2019-03-30T18:01:09.475Z,8.13
2019-03-30T18:03:37.873Z,9.27
2019-03-30T18:06:06.271Z,9.37
2019-03-30T18:08:34.683Z,9.97
2019-03-30T18:11:04.225Z,8.97
2019-03-30T18:13:32.838Z,10.80
2019-03-30T18:16:01.305Z,19.37
2019-03-30T18:18:29.996Z,22.53
2019-03-30T18:20:58.398Z,17.03
2019-03-30T18:23:26.795Z,26.37
2019-03-30T18:25:55.228Z,35.43
2019-03-30T18:28:27.346Z,34.57
2019-03-30T18:30:54.135Z,15.37
2019-03-30T18:33:23.192Z,31.17
2019-03-30T18:35:51.586Z,23.00
2019-03-30T18:38:20.839Z,13.50
2019-03-30T18:40:49.277Z,10.63
2019-03-30T18:43:30.658Z,10.47
2019-03-30T18:45:59.065Z,9.53
2019-03-30T18:48:27.463Z,10.37
2019-03-30T18:50:56.045Z,10.27
2019-03-30T18:53:24.454Z,10.33
2019-03-30T18:55:52.839Z,9.67
2019-03-30T18:58:21.458Z,10.57
2019-03-30T19:00:49.875Z,10.83
2019-03-30T19:03:20.003Z,9.00
2019-03-30T19:05:48.635Z,10.30
2019-03-30T19:08:17.040Z,10.30
2019-03-30T19:10:45.736Z,10.77
2019-03-30T19:13:14.153Z,11.57
2019-03-30T19:15:42.551Z,11.47
2019-03-30T19:18:10.975Z,11.80
2019-03-30T19:20:39.397Z,10.00
2019-03-30T19:23:07.804Z,11.97
2019-03-30T19:25:36.243Z,10.60
2019-03-30T19:28:04.726Z,10.10
2019-03-30T19:30:33.127Z,11.27
2019-03-30T19:33:01.544Z,10.30
2019-03-30T19:35:29.971Z,16.20
2019-03-30T19:37:58.376Z,11.50
2019-03-30T19:40:26.775Z,11.30
2019-03-30T19:42:55.438Z,10.43
2019-03-30T19:45:23.846Z,11.50
2019-03-30T19:47:52.238Z,11.07
2019-03-30T19:50:20.834Z,12.13
2019-03-30T19:52:49.241Z,11.70
2019-03-30T19:55:17.635Z,12.23
2019-03-30T19:57:46.048Z,11.10
2019-03-30T20:00:16.023Z,11.03
2019-03-30T20:02:44.557Z,12.73
2019-03-30T20:05:14.935Z,13.03
2019-03-30T20:07:43.475Z,13.57
2019-03-30T20:10:12.312Z,13.57
2019-03-30T20:12:40.716Z,13.40
2019-03-30T20:15:09.456Z,13.30
2019-03-30T20:17:37.885Z,12.77
2019-03-30T20:20:06.974Z,13.13
2019-03-30T20:22:35.381Z,12.57
2019-03-30T20:25:06.032Z,14.23
2019-03-30T20:27:34.499Z,13.00
2019-03-30T20:30:04.087Z,12.70
2019-03-30T20:32:32.487Z,12.80
2019-03-30T20:35:00.882Z,13.00
2019-03-30T20:37:29.301Z,13.17
2019-03-30T20:39:57.727Z,13.37
2019-03-30T20:42:26.126Z,12.93
2019-03-30T20:44:54.527Z,12.67
2019-03-30T20:47:23.014Z,12.97
2019-03-30T20:49:51.438Z,13.83
2019-03-30T20:52:19.835Z,13.57
2019-03-30T20:54:48.242Z,12.53
2019-03-30T20:57:16.667Z,13.33
2019-03-30T20:59:45.059Z,14.00
2019-03-30T21:02:13.471Z,14.03
2019-03-30T21:04:41.874Z,13.33
2019-03-30T21:07:10.298Z,13.07
2019-03-30T21:09:38.996Z,13.13
2019-03-30T21:12:07.383Z,13.93
2019-03-30T21:14:36.071Z,14.00
2019-03-30T21:17:04.916Z,13.13
2019-03-30T21:19:33.306Z,14.80
2019-03-30T21:22:01.727Z,13.83
2019-03-30T21:24:30.128Z,13.00
2019-03-30T21:26:58.549Z,13.77
2019-03-30T21:29:26.958Z,15.27
2019-03-30T21:31:55.399Z,14.33
2019-03-30T21:34:24.023Z,13.57
2019-03-30T21:36:52.426Z,13.53
2019-03-30T21:39:20.839Z,15.33
2019-03-30T21:41:49.247Z,14.20
2019-03-30T21:44:22.174Z,13.70
2019-03-30T21:46:47.878Z,14.43
2019-03-30T21:49:16.301Z,14.73
2019-03-30T21:51:44.703Z,15.37
2019-03-30T21:54:13.099Z,15.33
2019-03-30T21:56:41.511Z,15.50
2019-03-30T21:59:09.919Z,14.63
2019-03-30T22:01:38.353Z,15.20
2019-03-30T22:04:06.738Z,13.90
2019-03-30T22:06:35.158Z,15.53
2019-03-30T22:09:05.541Z,14.53
2019-03-30T22:11:33.950Z,15.43
2019-03-30T22:14:02.371Z,14.40
2019-03-30T22:16:30.762Z,14.50
2019-03-30T22:18:59.179Z,15.00
2019-03-30T22:21:27.575Z,15.47
2019-03-30T22:23:55.979Z,12.90
2019-03-30T22:26:24.945Z,14.47
2019-03-30T22:28:53.482Z,14.50
2019-03-30T22:31:21.903Z,14.47
2019-03-30T22:33:50.299Z,12.97
2019-03-30T22:36:18.695Z,13.50
2019-03-30T22:38:47.659Z,14.40
2019-03-30T22:41:16.054Z,13.97
2019-03-30T22:43:44.453Z,14.40
2019-03-30T22:46:12.932Z,14.97
2019-03-30T22:48:41.615Z,13.63
2019-03-30T22:51:10.008Z,14.10
2019-03-30T22:53:38.414Z,14.87
2019-03-30T22:56:06.832Z,14.13
2019-03-30T22:58:35.243Z,13.83
2019-03-30T23:01:05.350Z,14.93
2019-03-30T23:03:33.766Z,13.73
2019-03-30T23:06:02.245Z,14.47
2019-03-30T23:08:30.645Z,14.63
2019-03-30T23:10:59.115Z,13.40
2019-03-30T23:13:27.601Z,13.23
2019-03-30T23:15:56.010Z,14.73
2019-03-30T23:18:24.499Z,14.63
2019-03-30T23:20:52.979Z,13.70
2019-03-30T23:23:21.587Z,13.50
2019-03-30T23:25:50.114Z,14.60
2019-03-30T23:28:18.518Z,14.97
2019-03-30T23:30:54.063Z,15.93
2019-03-30T23:33:17.143Z,16.83
2019-03-30T23:35:45.603Z,15.67
2019-03-30T23:38:14.032Z,15.07
2019-03-30T23:40:42.428Z,14.17
2019-03-30T23:43:11.059Z,14.50
2019-03-30T23:45:39.451Z,14.13
2019-03-30T23:48:08.205Z,13.77
2019-03-30T23:50:36.695Z,14.53
2019-03-30T23:53:07.445Z,14.23
2019-03-30T23:55:35.326Z,13.60
2019-03-30T23:58:03.775Z,14.80
